Home > Products > Valid Products > TAF

000
FTUS45 KVEF 311720
TAFEED
TAF
KEED 311720Z 3118/0118 03007KT P6SM FEW150
     FM010300 24008KT P6SM SKC
     FM011500 02010KT P6SM SKC=



000
FTUS45 KVEF 311720
TAFBIH
TAF
KBIH 311720Z 3118/0118 34008KT P6SM FEW120
     FM011300 VRB05KT P6SM SKC=



000
FTUS45 KVEF 311720
TAFDAG
TAF
KDAG 311720Z 3118/0118 30010KT P6SM FEW150
     FM312000 04007KT P6SM FEW150
     FM010300 25012KT P6SM SKC
     FM011600 30008KT P6SM SKC=



000
FTUS45 KVEF 311720
TAFVGT
TAF
KVGT 311720Z 3118/0118 03008KT P6SM FEW150
     FM010400 35006KT P6SM SKC
     FM011600 05008KT P6SM SKC=



000
FTUS45 KVEF 311720
TAFLAS
TAF
KLAS 311720Z 3118/0118 03008KT P6SM FEW150
     FM010400 22007KT P6SM SKC
     FM011400 02006KT P6SM SKC=



000
FTUS45 KVEF 311123
TAFLAS
TAF
KLAS 311123Z 3112/0112 VRB05KT P6SM FEW150
     FM311500 03008KT P6SM FEW150
     FM010400 20006KT P6SM SKC=



000
FTUS45 KVEF 311123
TAFEED
TAF
KEED 311123Z 3112/0112 VRB05KT P6SM FEW150
     FM311500 03007KT P6SM FEW150
     FM010300 24007KT P6SM SKC=



000
FTUS45 KVEF 311123
TAFBIH
TAF
KBIH 311123Z 3112/0112 34007KT P6SM SKC
     FM311800 35010KT P6SM FEW120 SCT250
     FM010600 33005KT P6SM SKC=



000
FTUS45 KVEF 311123
TAFVGT
TAF
KVGT 311123Z 3112/0112 36005KT P6SM FEW150
     FM311800 04007KT P6SM FEW150
     FM010400 34006KT P6SM SKC=



000
FTUS45 KVEF 311123
TAFDAG
TAF
KDAG 311123Z 3112/0112 25010KT P6SM FEW150
     FM311600 30010KT P6SM FEW150
     FM312000 02007KT P6SM FEW150
     FM010100 25012KT P6SM SKC=



000
FTUS45 KVEF 310520
TAFEED
TAF
KEED 310520Z 3106/0106 24007KT P6SM FEW150 SCT250
     FM311500 03006KT P6SM FEW150=



000
FTUS45 KVEF 301120
TAFEED
TAF
KEED 301120Z 3012/3112 VRB06KT P6SM SKC
     FM310300 24007KT P6SM FEW150 SCT250=



000
FTUS45 KVEF 301120
TAFDAG
TAF
KDAG 301120Z 3012/3112 26008KT P6SM SKC
     FM301500 30007KT P6SM SKC
     FM302000 05007KT P6SM FEW250
     FM310200 26010KT P6SM FEW250=



000
FTUS45 KVEF 301120
TAFLAS
TAF
KLAS 301120Z 3012/3112 VRB04KT P6SM FEW250
     FM301900 07006KT P6SM FEW120 SCT250
     FM310300 20007KT P6SM FEW150 SCT250=



000
FTUS45 KVEF 301120
TAFBIH
TAF
KBIH 301120Z 3012/3112 31006KT P6SM SCT250
     FM301600 36010KT P6SM SCT120 SCT250=



000
FTUS45 KVEF 301120
TAFVGT
TAF
KVGT 301120Z 3012/3112 VRB05KT P6SM FEW250
     FM301900 13006KT P6SM FEW120 SCT250
     FM310400 33006KT P6SM FEW150 SCT250=



000
FTUS45 KVEF 300246 AAA
TAFLAS
TAF AMD
KLAS 300246Z 3003/3024 21007KT P6SM FEW150
     FM301300 VRB04KT P6SM FEW150
     FM301800 05006KT P6SM FEW120=



000
FTUS45 KVEF 292112 AAB
TAFLAS
TAF AMD
KLAS 292112Z 2921/3018 10010KT P6SM FEW120 FEW150
     FM292200 14008KT P6SM FEW120 FEW150
     FM300400 21007KT P6SM FEW150
     FM301300 VRB04KT P6SM FEW150=



000
FTUS45 KVEF 292047 AAA
TAFLAS
TAF AMD
KLAS 292047Z 2921/3018 04006KT P6SM FEW120 FEW150
     FM292200 15007KT P6SM FEW120 FEW150
     FM300400 21007KT P6SM FEW150
     FM301300 VRB04KT P6SM FEW150=



000
FTUS45 KVEF 291730
TAFLAS
TAF
KLAS 291730Z 2918/3018 VRB05KT P6SM FEW120
     FM292000 15010KT P6SM SCT120
     FM300400 21007KT P6SM FEW150
     FM301300 VRB04KT P6SM FEW150=



000
FTUS45 KVEF 291730
TAFBIH
TAF
KBIH 291730Z 2918/3018 VRB06KT P6SM FEW120
     FM291900 16010G18KT P6SM SCT120 BKN250
     FM300400 33006KT P6SM FEW140 SCT250=



000
FTUS45 KVEF 291730
TAFVGT
TAF
KVGT 291730Z 2918/3018 VRB06KT P6SM FEW120
     FM292000 15008KT P6SM SCT120
     FM300200 18006KT P6SM FEW120
     FM300600 32005KT P6SM FEW150=



000
FTUS45 KVEF 291730
TAFEED
TAF
KEED 291730Z 2918/3018 19010KT P6SM SKC
     FM300200 24008KT P6SM SKC=



000
FTUS45 KVEF 291730
TAFDAG
TAF
KDAG 291730Z 2918/3018 VRB06KT P6SM SKC
     FM291900 07008KT P6SM FEW140
     FM300200 24010KT P6SM SKC
     FM300800 26008KT P6SM SKC=



000
FTUS45 KVEF 291444 AAA
TAFLAS
TAF AMD
KLAS 291444Z 2915/3012 VRB05KT P6SM FEW150 FEW250
     FM292000 15010KT P6SM SCT120 SCT250
     FM300400 21007KT P6SM FEW150 SCT250=



    US Dept of Commerce
    National Oceanic and Atmospheric Administration
    National Weather Service
    1325 East West Highway
    Silver Spring, MD 20910
    Page Author: NWS Internet Services Team
Disclaimer
Information Quality
Credits
Glossary
Privacy Policy
Freedom of Information Act (FOIA)
About Us
Career Opportunities